Kezdőlap
METAR-TAF:

METAR-TAF

Repülőterek :

Vadsø, Norvégia

földrajzi szélesség: 70-04N, földrajzi hosszúság: 029-51E, magasság: 3 m

Jelenlegi meteorológiai megfigyelések

A jelentés 10 perccel ezelõtt készült, 10:20 UTC
Nyugati szél 14 kt
Hőmérséklet 8°C
Páratartalom 76%
Légköri nyomás 1008 hPa
Látótávolság 10 km, vagy több
Szakadozott felhőzet 2700 lábon

METAR: ENVD 231020Z 27014KT 9999 BKN027 08/04 Q1008

Idő: 12:30 (10:30 UTC)

Előrejelzés

A jelentés 2 órával és 30 perccel ezelõtt készült, 08:00 UTC
Az előrejelzés 23-én 09 óra UTC és 23-én 18 óra UTC között érvényes
Nyugati szél 8 kt
Látótávolság 10 km, vagy több
Kevés felhő 1500 lábon
Szakadozott felhőzet 3000 lábon
23-én 09 óra UTC és 23-én 15 óra UTC között ideiglenes
Nyugati szél 20 kt széllökések: 30 kt

TAF: ENVD 230800Z 2309/2318 27008KT 9999 FEW015 BKN030 TEMPO 2309/2315 27020G30KT

Meteorológiai megfigyelések és előrejelzések több, mint 4000 repülőtéren (METAR és TAF jelentéseket).

A térképen piros és sárga pontok jelzik az elérhető meteorológiai állomásokat.

Mozgassa az egeret a pont fölött, hogy megjelenjen az állomás neve.

Azután kattintson az időjárási megfigyelések és előrejelzések megtekintéséhez.

A térkép megváltoztatása: kattintson a fekete keresztel jelölt zöld gombra ráközelítéshez, a vonallal jelölt zöld gombra távolításhoz, vagy a zöld nyilakra a szomszédos térképek eléréséhez.


METAR-TAF: